createdAt,value
2019-02-26T00:00:31.835Z,4.90
2019-02-26T00:03:04.538Z,4.90
2019-02-26T00:05:33.819Z,5.00
2019-02-26T00:08:04.425Z,4.90
2019-02-26T00:10:36.451Z,4.80
2019-02-26T00:13:06.204Z,4.70
2019-02-26T00:15:38.120Z,4.70
2019-02-26T00:18:11.505Z,4.70
2019-02-26T00:20:41.402Z,4.60
2019-02-26T00:23:11.606Z,4.60
2019-02-26T00:25:41.686Z,4.60
2019-02-26T00:28:13.244Z,4.50
2019-02-26T00:30:43.439Z,4.50
2019-02-26T00:33:13.513Z,4.50
2019-02-26T00:35:44.283Z,4.40
2019-02-26T00:38:17.272Z,4.40
2019-02-26T00:40:48.226Z,4.30
2019-02-26T00:43:20.983Z,4.30
2019-02-26T00:45:51.030Z,4.20
2019-02-26T00:48:21.803Z,4.20
2019-02-26T00:50:54.392Z,4.10
2019-02-26T00:53:25.963Z,4.10
2019-02-26T00:58:27.533Z,4.00
2019-02-26T01:00:57.629Z,4.00
2019-02-26T01:03:27.688Z,4.10
2019-02-26T01:05:59.305Z,4.10
2019-02-26T01:08:29.627Z,4.10
2019-02-26T01:11:01.567Z,4.00
2019-02-26T01:13:32.275Z,4.00
2019-02-26T01:16:02.405Z,4.10
2019-02-26T01:18:32.603Z,4.10
2019-02-26T01:21:04.310Z,4.10
2019-02-26T01:23:34.631Z,4.20
2019-02-26T01:26:04.778Z,4.30
2019-02-26T01:28:34.868Z,4.10
2019-02-26T01:31:05.747Z,4.00
2019-02-26T01:33:37.106Z,3.90
2019-02-26T01:36:07.231Z,4.00
2019-02-26T01:38:39.500Z,3.90
2019-02-26T01:41:11.316Z,3.80
2019-02-26T01:43:41.820Z,3.70
2019-02-26T01:46:14.029Z,3.70
2019-02-26T01:48:43.683Z,3.60
2019-02-26T01:51:14.884Z,3.60
2019-02-26T01:53:46.838Z,3.50
2019-02-26T01:56:17.759Z,3.50
2019-02-26T01:58:56.301Z,3.60
2019-02-26T02:01:21.987Z,3.60
2019-02-26T02:03:53.892Z,3.70
2019-02-26T02:06:23.966Z,3.70
2019-02-26T02:08:55.742Z,3.60
2019-02-26T02:11:28.442Z,3.50
2019-02-26T02:14:01.820Z,3.40
2019-02-26T02:16:31.816Z,3.30
2019-02-26T02:19:04.243Z,3.40
2019-02-26T02:21:35.646Z,3.40
2019-02-26T02:24:10.757Z,3.40
2019-02-26T02:26:37.923Z,3.30
2019-02-26T02:29:08.055Z,3.30
2019-02-26T02:31:40.156Z,3.30
2019-02-26T02:34:10.010Z,3.30
2019-02-26T02:36:40.147Z,3.20
2019-02-26T02:39:13.223Z,3.20
2019-02-26T02:41:44.630Z,3.20
2019-02-26T02:44:15.423Z,3.20
2019-02-26T02:46:46.686Z,3.20
2019-02-26T02:49:17.937Z,3.30
2019-02-26T02:51:48.151Z,3.30
2019-02-26T02:54:21.047Z,3.20
2019-02-26T02:56:51.253Z,3.20
2019-02-26T02:59:21.357Z,3.10
2019-02-26T03:01:54.293Z,3.10
2019-02-26T03:04:27.857Z,3.00
2019-02-26T03:06:55.569Z,3.00
2019-02-26T03:09:26.725Z,2.90
2019-02-26T03:11:56.869Z,2.90
2019-02-26T03:14:26.976Z,2.90
2019-02-26T03:16:57.137Z,2.80
2019-02-26T03:19:29.492Z,2.80
2019-02-26T03:21:58.984Z,2.70
2019-02-26T03:24:31.432Z,2.70
2019-02-26T03:27:00.738Z,2.70
2019-02-26T03:29:30.787Z,2.60
2019-02-26T03:32:00.903Z,2.60
2019-02-26T03:34:30.942Z,2.60
2019-02-26T03:37:03.844Z,2.60
2019-02-26T03:39:32.835Z,2.60
2019-02-26T03:42:02.896Z,2.50
2019-02-26T03:44:33.005Z,2.50
2019-02-26T03:47:03.120Z,2.50
2019-02-26T03:49:33.188Z,2.50
2019-02-26T03:52:03.207Z,2.50
2019-02-26T03:54:33.245Z,2.50
2019-02-26T03:57:03.403Z,2.50
2019-02-26T03:59:33.615Z,2.50
2019-02-26T04:02:03.622Z,2.50
2019-02-26T04:04:33.796Z,2.50
2019-02-26T04:07:08.097Z,2.50
2019-02-26T04:09:39.100Z,2.50
2019-02-26T04:12:11.222Z,2.40
2019-02-26T04:14:40.498Z,2.40
2019-02-26T04:17:10.607Z,2.40
2019-02-26T04:19:43.771Z,2.40
2019-02-26T04:22:29.436Z,2.30
2019-02-26T04:25:27.014Z,2.30
2019-02-26T04:28:11.244Z,2.30
2019-02-26T04:31:20.435Z,2.30
2019-02-26T04:34:23.324Z,2.30
2019-02-26T04:37:48.126Z,2.20
2019-02-26T04:40:35.746Z,2.30
2019-02-26T04:43:41.896Z,2.30
2019-02-26T04:46:40.700Z,2.30
2019-02-26T04:49:10.718Z,2.30
2019-02-26T04:51:44.496Z,2.30
2019-02-26T04:54:17.501Z,2.30
2019-02-26T04:56:45.115Z,2.20
2019-02-26T04:59:16.939Z,2.20
2019-02-26T05:01:51.799Z,2.30
2019-02-26T05:04:19.422Z,2.20
2019-02-26T05:06:49.571Z,2.30
2019-02-26T05:09:19.618Z,2.30
2019-02-26T05:11:49.663Z,2.30
2019-02-26T05:14:22.903Z,2.30
2019-02-26T05:16:51.486Z,2.30
2019-02-26T05:19:22.353Z,2.30
2019-02-26T05:21:54.003Z,2.30
2019-02-26T05:24:26.350Z,2.20
2019-02-26T05:26:56.661Z,2.20
2019-02-26T05:29:26.814Z,2.20
2019-02-26T05:31:58.818Z,2.30
2019-02-26T05:34:29.586Z,2.40
2019-02-26T05:37:01.898Z,2.30
2019-02-26T05:39:31.451Z,2.20
2019-02-26T05:42:03.959Z,2.20
2019-02-26T05:44:33.322Z,2.10
2019-02-26T05:47:03.351Z,2.10
2019-02-26T05:49:35.359Z,2.10
2019-02-26T05:52:07.160Z,2.10
2019-02-26T05:54:37.065Z,2.10
2019-02-26T05:57:10.795Z,2.10
2019-02-26T05:59:41.897Z,2.10
2019-02-26T06:02:14.052Z,2.00
2019-02-26T06:04:46.569Z,2.00
2019-02-26T06:07:19.174Z,2.00
2019-02-26T06:09:50.932Z,1.90
2019-02-26T06:12:20.315Z,1.90
2019-02-26T06:14:51.488Z,2.00
2019-02-26T06:17:22.178Z,2.00
2019-02-26T06:19:52.680Z,2.00
2019-02-26T06:22:26.039Z,2.00
2019-02-26T06:24:59.498Z,2.00
2019-02-26T06:27:29.346Z,2.00
2019-02-26T06:30:03.236Z,2.00
2019-02-26T06:32:34.291Z,2.10
2019-02-26T06:35:06.190Z,2.10
2019-02-26T06:37:37.878Z,2.00
2019-02-26T06:40:09.619Z,2.00
2019-02-26T06:42:40.343Z,2.10
2019-02-26T06:45:16.477Z,2.10
2019-02-26T06:47:48.600Z,2.10
2019-02-26T06:50:18.889Z,2.10
2019-02-26T06:52:50.764Z,2.20
2019-02-26T06:55:21.207Z,2.20
2019-02-26T06:57:52.862Z,2.20
2019-02-26T07:00:25.288Z,2.20
2019-02-26T07:02:54.986Z,2.20
2019-02-26T07:05:25.010Z,2.30
2019-02-26T07:07:57.065Z,2.30
2019-02-26T07:10:30.780Z,2.40
2019-02-26T07:12:59.719Z,2.40
2019-02-26T07:15:29.849Z,2.50
2019-02-26T07:18:04.457Z,2.50
2019-02-26T07:20:34.302Z,2.50
2019-02-26T07:23:05.790Z,2.60
2019-02-26T07:25:39.038Z,2.60
2019-02-26T07:28:08.250Z,2.70
2019-02-26T07:30:39.907Z,2.80
2019-02-26T07:33:12.141Z,2.90
2019-02-26T07:35:41.756Z,3.00
2019-02-26T07:38:11.791Z,3.10
2019-02-26T07:40:41.823Z,3.20
2019-02-26T07:43:14.734Z,3.30
2019-02-26T07:45:43.604Z,3.40
2019-02-26T07:48:16.442Z,3.50
2019-02-26T07:50:47.755Z,3.70
2019-02-26T07:53:19.641Z,3.90
2019-02-26T07:55:48.864Z,4.00
2019-02-26T07:58:18.898Z,4.00
2019-02-26T08:00:49.736Z,4.10
2019-02-26T08:03:23.777Z,4.20
2019-02-26T08:05:52.478Z,4.30
2019-02-26T08:08:22.615Z,4.40
2019-02-26T08:10:53.073Z,4.50
2019-02-26T08:13:24.389Z,4.70
2019-02-26T08:15:57.664Z,4.70
2019-02-26T08:18:26.979Z,4.80
2019-02-26T08:20:57.938Z,4.90
2019-02-26T08:23:28.764Z,5.10
2019-02-26T08:26:00.445Z,5.20
2019-02-26T08:28:30.563Z,5.40
2019-02-26T08:31:00.769Z,5.50
2019-02-26T08:33:30.889Z,5.60
2019-02-26T08:36:01.119Z,5.80
2019-02-26T08:38:31.173Z,5.90
2019-02-26T08:41:01.290Z,6.00
2019-02-26T08:43:31.370Z,6.10
2019-02-26T08:46:01.523Z,6.20
2019-02-26T08:48:31.739Z,6.30
2019-02-26T08:51:05.343Z,6.70
2019-02-26T08:53:34.766Z,8.40
2019-02-26T08:56:04.892Z,10.80
2019-02-26T08:58:34.998Z,12.50
2019-02-26T09:01:05.493Z,13.80
2019-02-26T09:03:40.785Z,14.50
2019-02-26T09:06:12.728Z,15.10
2019-02-26T09:08:40.661Z,15.90
2019-02-26T09:11:13.387Z,15.80
2019-02-26T09:13:43.828Z,16.50
2019-02-26T09:16:14.159Z,16.10
2019-02-26T09:18:44.296Z,16.10
2019-02-26T09:21:15.267Z,16.80
2019-02-26T09:23:47.395Z,16.90
2019-02-26T09:26:17.229Z,17.00
2019-02-26T09:28:48.223Z,17.00
2019-02-26T09:31:19.158Z,17.00
2019-02-26T09:33:49.264Z,17.60
2019-02-26T09:36:23.156Z,17.90
2019-02-26T09:38:51.443Z,17.70
2019-02-26T09:41:21.766Z,17.80
2019-02-26T09:43:51.841Z,17.30
2019-02-26T09:46:21.871Z,18.40
2019-02-26T09:48:52.287Z,18.70
2019-02-26T09:51:22.419Z,18.00
2019-02-26T09:53:54.322Z,17.70
2019-02-26T09:56:24.263Z,18.00
2019-02-26T09:58:54.256Z,17.60
2019-02-26T10:01:24.298Z,17.70
2019-02-26T10:03:55.975Z,17.70
2019-02-26T10:06:26.144Z,18.20
2019-02-26T10:08:56.213Z,18.50
2019-02-26T10:11:27.940Z,18.80
2019-02-26T10:13:58.182Z,19.90
2019-02-26T10:16:30.522Z,19.00
2019-02-26T10:19:01.355Z,19.30
2019-02-26T10:21:33.130Z,20.40
2019-02-26T10:24:04.597Z,20.10
2019-02-26T10:26:36.586Z,19.60
2019-02-26T10:29:07.995Z,19.00
2019-02-26T10:31:41.087Z,18.80
2019-02-26T10:34:12.599Z,18.90
2019-02-26T10:36:44.136Z,19.60
2019-02-26T10:39:15.671Z,19.30
2019-02-26T10:41:46.707Z,19.30
2019-02-26T10:44:16.935Z,19.60
2019-02-26T10:46:47.047Z,19.80
2019-02-26T10:49:17.173Z,19.60
2019-02-26T10:51:47.315Z,19.40
2019-02-26T10:54:18.108Z,19.90
2019-02-26T10:56:57.194Z,18.60
2019-02-26T10:59:26.831Z,16.80
2019-02-26T11:01:58.582Z,15.50
2019-02-26T11:04:34.805Z,14.50
2019-02-26T11:07:02.380Z,14.20
2019-02-26T11:09:32.484Z,13.80
2019-02-26T11:12:05.207Z,13.90
2019-02-26T11:14:36.223Z,13.70
2019-02-26T11:17:06.180Z,13.80
2019-02-26T11:19:38.824Z,13.90
2019-02-26T11:22:08.047Z,13.80
2019-02-26T11:24:38.086Z,13.90
2019-02-26T11:27:08.144Z,13.90
2019-02-26T11:29:38.826Z,14.10
2019-02-26T11:32:12.407Z,14.20
2019-02-26T11:34:41.799Z,14.30
2019-02-26T11:37:11.843Z,14.50
2019-02-26T11:39:42.004Z,14.60
2019-02-26T11:42:21.106Z,14.80
2019-02-26T11:44:51.704Z,14.80
2019-02-26T11:47:21.858Z,14.90
2019-02-26T11:49:51.948Z,14.90
2019-02-26T11:52:22.007Z,15.00
2019-02-26T11:54:52.171Z,15.10
2019-02-26T11:57:22.268Z,15.10
2019-02-26T11:59:52.472Z,15.20
2019-02-26T12:02:26.137Z,15.40
2019-02-26T12:04:54.885Z,15.40
2019-02-26T12:07:27.282Z,15.60
2019-02-26T12:09:57.960Z,15.90
2019-02-26T12:12:30.944Z,15.90
2019-02-26T12:15:02.081Z,16.00
2019-02-26T12:17:34.177Z,16.10
2019-02-26T12:20:04.394Z,16.10
2019-02-26T12:22:34.497Z,16.10
2019-02-26T12:25:08.270Z,16.20
2019-02-26T12:27:38.365Z,16.20
2019-02-26T12:30:13.323Z,16.20
2019-02-26T12:32:47.234Z,16.30
2019-02-26T12:35:17.797Z,16.40
2019-02-26T12:37:50.112Z,16.30
2019-02-26T12:40:22.190Z,16.40
2019-02-26T12:42:51.538Z,16.40
2019-02-26T12:45:21.817Z,16.50
2019-02-26T12:47:54.967Z,16.60
2019-02-26T12:50:28.988Z,16.80
2019-02-26T12:52:57.023Z,16.70
2019-02-26T12:55:31.651Z,16.80
2019-02-26T12:57:59.631Z,16.90
2019-02-26T13:00:29.884Z,16.70
2019-02-26T13:02:59.950Z,16.60
2019-02-26T13:05:30.128Z,16.50
2019-02-26T13:08:00.213Z,16.60
2019-02-26T13:10:30.449Z,16.50
2019-02-26T13:13:03.920Z,16.50
2019-02-26T13:15:32.427Z,16.50
2019-02-26T13:18:02.490Z,16.60
2019-02-26T13:20:32.687Z,16.60
2019-02-26T13:23:16.330Z,16.60
2019-02-26T13:25:34.820Z,16.70
2019-02-26T13:28:04.905Z,16.60
2019-02-26T13:30:35.054Z,16.70
2019-02-26T13:33:11.286Z,16.70
2019-02-26T13:35:38.088Z,16.80
2019-02-26T13:38:08.322Z,16.90
2019-02-26T13:40:40.176Z,16.90
2019-02-26T13:43:11.405Z,17.10
2019-02-26T13:45:41.682Z,17.10
2019-02-26T13:48:13.029Z,17.10
2019-02-26T13:50:43.622Z,17.20
2019-02-26T13:53:14.098Z,17.20
2019-02-26T13:55:45.120Z,17.20
2019-02-26T13:58:17.651Z,17.10
2019-02-26T14:00:48.105Z,17.00
2019-02-26T14:03:18.630Z,17.10
2019-02-26T14:05:50.605Z,17.20
2019-02-26T14:08:25.546Z,17.20
2019-02-26T14:10:56.043Z,17.20
2019-02-26T14:13:26.517Z,17.20
2019-02-26T14:15:56.803Z,17.20
2019-02-26T14:18:27.092Z,17.20
2019-02-26T14:20:57.475Z,17.30
2019-02-26T14:23:27.793Z,17.30
2019-02-26T14:25:57.920Z,17.30
2019-02-26T14:28:28.256Z,17.40
2019-02-26T14:30:58.342Z,17.40
2019-02-26T14:33:28.453Z,17.40
2019-02-26T14:35:58.630Z,17.20
2019-02-26T14:38:28.714Z,17.30
2019-02-26T14:41:00.131Z,17.30
2019-02-26T14:43:30.479Z,17.20
2019-02-26T14:46:00.735Z,17.00
2019-02-26T14:48:30.859Z,17.00
2019-02-26T14:51:01.043Z,16.90
2019-02-26T14:53:31.167Z,16.80
2019-02-26T14:56:01.273Z,16.80
2019-02-26T14:58:31.481Z,16.80
2019-02-26T15:01:01.635Z,16.80
2019-02-26T15:05:25.333Z,16.70
2019-02-26T15:07:55.503Z,16.50
2019-02-26T15:10:25.608Z,16.50
2019-02-26T15:12:56.086Z,16.40
2019-02-26T15:15:26.172Z,16.40
2019-02-26T15:17:56.251Z,16.30
2019-02-26T15:20:26.544Z,16.20
2019-02-26T15:22:56.731Z,16.10
2019-02-26T15:25:26.782Z,16.00
2019-02-26T15:28:04.498Z,15.90
2019-02-26T15:30:34.488Z,15.80
2019-02-26T15:33:10.968Z,15.70
2019-02-26T15:35:37.698Z,15.80
2019-02-26T15:38:07.862Z,15.80
2019-02-26T15:40:37.966Z,15.80
2019-02-26T15:43:08.117Z,15.70
2019-02-26T15:45:38.414Z,15.60
2019-02-26T15:48:09.642Z,15.40
2019-02-26T15:50:40.376Z,15.40
2019-02-26T15:53:10.690Z,15.50
2019-02-26T15:55:42.174Z,15.50
2019-02-26T15:58:12.355Z,15.50
2019-02-26T16:00:42.523Z,15.50
2019-02-26T16:03:13.366Z,15.30
2019-02-26T16:05:43.499Z,15.20
2019-02-26T16:08:13.586Z,15.00
2019-02-26T16:10:43.785Z,14.90
2019-02-26T16:13:13.914Z,14.70
2019-02-26T16:15:44.070Z,14.70
2019-02-26T16:18:14.560Z,14.60
2019-02-26T16:20:44.658Z,14.60
2019-02-26T16:23:14.695Z,14.60
2019-02-26T16:25:44.788Z,14.40
2019-02-26T16:28:14.895Z,14.30
2019-02-26T16:30:45.334Z,14.20
2019-02-26T16:33:15.480Z,14.00
2019-02-26T16:35:45.652Z,13.90
2019-02-26T16:38:15.820Z,13.90
2019-02-26T16:40:46.099Z,13.80
2019-02-26T16:43:17.061Z,13.80
2019-02-26T16:45:47.976Z,13.80
2019-02-26T16:48:21.367Z,13.60
2019-02-26T16:50:49.833Z,13.40
2019-02-26T16:53:19.994Z,13.30
2019-02-26T16:55:50.058Z,13.20
2019-02-26T16:58:20.403Z,13.10
2019-02-26T17:00:50.567Z,13.00
2019-02-26T17:03:20.632Z,12.90
2019-02-26T17:05:50.784Z,12.80
2019-02-26T17:08:20.942Z,12.80
2019-02-26T17:10:51.103Z,12.70
2019-02-26T17:13:21.251Z,12.60
2019-02-26T17:15:51.707Z,12.50
2019-02-26T17:18:21.864Z,12.40
2019-02-26T17:20:52.007Z,12.40
2019-02-26T17:23:22.210Z,12.30
2019-02-26T17:25:52.412Z,12.10
2019-02-26T17:28:22.679Z,12.00
2019-02-26T17:30:52.790Z,11.90
2019-02-26T17:33:22.835Z,11.70
2019-02-26T17:35:53.038Z,11.70
2019-02-26T17:38:23.332Z,11.60
2019-02-26T17:40:53.441Z,11.60
2019-02-26T17:43:25.191Z,11.50
2019-02-26T17:45:55.404Z,11.40
2019-02-26T17:48:25.637Z,11.30
2019-02-26T17:50:57.872Z,11.20
2019-02-26T17:53:35.052Z,10.90
2019-02-26T17:56:09.747Z,10.90
2019-02-26T17:58:41.718Z,10.90
2019-02-26T18:01:11.799Z,11.00
2019-02-26T18:03:45.363Z,11.00
2019-02-26T18:06:15.539Z,11.00
2019-02-26T18:08:46.111Z,10.90
2019-02-26T18:11:16.290Z,10.80
2019-02-26T18:13:46.411Z,10.70
2019-02-26T18:16:17.558Z,10.60
2019-02-26T18:18:48.802Z,10.50
2019-02-26T18:21:18.873Z,10.40
2019-02-26T18:23:50.099Z,10.40
2019-02-26T18:26:21.830Z,10.40
2019-02-26T18:28:53.183Z,10.30
2019-02-26T18:31:26.454Z,10.20
2019-02-26T18:33:55.328Z,10.10
2019-02-26T18:36:25.496Z,10.00
2019-02-26T18:38:55.711Z,10.00
2019-02-26T18:41:26.118Z,10.00
2019-02-26T18:44:04.038Z,9.90
2019-02-26T18:46:34.283Z,9.90
2019-02-26T18:49:05.207Z,9.80
2019-02-26T18:51:37.100Z,9.70
2019-02-26T18:54:07.336Z,9.70
2019-02-26T18:56:39.413Z,9.80
2019-02-26T18:59:09.172Z,9.70
2019-02-26T19:01:39.353Z,9.60
2019-02-26T19:04:09.493Z,9.40
2019-02-26T19:06:39.702Z,9.40
2019-02-26T19:09:11.709Z,9.30
2019-02-26T19:11:42.053Z,9.30
2019-02-26T19:14:12.211Z,9.20
2019-02-26T19:16:42.230Z,9.10
2019-02-26T19:19:12.358Z,9.00
2019-02-26T19:21:42.533Z,9.00
2019-02-26T19:24:12.764Z,9.00
2019-02-26T19:26:44.457Z,9.00
2019-02-26T19:29:14.787Z,9.00
2019-02-26T19:31:44.829Z,9.00
2019-02-26T19:34:14.973Z,9.00
2019-02-26T19:36:45.821Z,8.90
2019-02-26T19:39:16.437Z,8.90
2019-02-26T19:41:46.703Z,8.80
2019-02-26T19:44:17.876Z,8.70
2019-02-26T19:46:49.666Z,8.70
2019-02-26T19:49:19.864Z,8.60
2019-02-26T19:51:51.088Z,8.60
2019-02-26T19:54:21.262Z,8.60
2019-02-26T19:56:51.547Z,8.50
2019-02-26T19:59:21.687Z,8.50
2019-02-26T20:01:51.800Z,8.40
2019-02-26T20:04:21.879Z,8.40
2019-02-26T20:06:52.011Z,8.30
2019-02-26T20:09:22.250Z,8.30
2019-02-26T20:11:53.584Z,8.20
2019-02-26T20:14:24.246Z,8.10
2019-02-26T20:16:54.303Z,8.00
2019-02-26T20:19:24.365Z,8.00
2019-02-26T20:21:54.475Z,8.00
2019-02-26T20:24:24.617Z,7.90
2019-02-26T20:26:54.755Z,7.90
2019-02-26T20:29:24.814Z,7.80
2019-02-26T20:31:55.845Z,7.80
2019-02-26T20:34:32.261Z,7.70
2019-02-26T20:37:02.397Z,7.60
2019-02-26T20:39:33.600Z,7.50
2019-02-26T20:42:04.866Z,7.50
2019-02-26T20:44:35.112Z,7.40
2019-02-26T20:47:05.212Z,7.40
2019-02-26T20:49:35.387Z,7.40
2019-02-26T20:52:05.987Z,7.30
2019-02-26T20:54:36.155Z,7.30
2019-02-26T20:57:06.222Z,7.30
2019-02-26T20:59:36.312Z,7.20
2019-02-26T21:02:06.596Z,7.20
2019-02-26T21:04:36.646Z,7.30
2019-02-26T21:07:07.035Z,7.20
2019-02-26T21:09:40.148Z,7.20
2019-02-26T21:12:08.854Z,7.10
2019-02-26T21:14:41.376Z,7.10
2019-02-26T21:17:10.751Z,7.00
2019-02-26T21:19:40.913Z,6.90
2019-02-26T21:22:11.279Z,6.90
2019-02-26T21:24:41.319Z,6.90
2019-02-26T21:27:11.507Z,6.90
2019-02-26T21:29:41.609Z,7.00
2019-02-26T21:32:11.874Z,6.90
2019-02-26T21:34:42.953Z,6.90
2019-02-26T21:37:13.203Z,6.80
2019-02-26T21:39:43.747Z,6.80
2019-02-26T21:42:14.501Z,6.70
2019-02-26T21:44:44.559Z,6.80
2019-02-26T21:47:14.711Z,6.80
2019-02-26T21:49:46.524Z,6.70
2019-02-26T21:52:16.623Z,6.70
2019-02-26T21:54:46.710Z,6.70
2019-02-26T21:57:16.809Z,6.90
2019-02-26T21:59:49.939Z,6.90
2019-02-26T22:02:19.373Z,6.80
2019-02-26T22:04:49.619Z,6.70
2019-02-26T22:07:19.858Z,6.70
2019-02-26T22:09:50.052Z,6.60
2019-02-26T22:12:23.777Z,6.70
2019-02-26T22:15:11.583Z,6.70
2019-02-26T22:17:41.618Z,6.60
2019-02-26T22:20:21.989Z,6.50
2019-02-26T22:22:44.532Z,6.50
2019-02-26T22:25:16.992Z,6.40
2019-02-26T22:27:46.631Z,6.30
2019-02-26T22:30:21.545Z,6.30
2019-02-26T22:32:49.012Z,6.30
2019-02-26T22:35:19.243Z,6.20
2019-02-26T22:37:49.278Z,6.20
2019-02-26T22:40:19.310Z,6.20
2019-02-26T22:42:49.526Z,6.30
2019-02-26T22:45:19.532Z,6.40
2019-02-26T22:47:49.653Z,6.50
2019-02-26T22:50:21.143Z,6.50
2019-02-26T22:52:51.173Z,6.40
2019-02-26T22:55:21.223Z,6.40
2019-02-26T22:57:51.260Z,6.30
2019-02-26T23:00:50.623Z,6.20
2019-02-26T23:03:22.271Z,6.20
2019-02-26T23:05:52.370Z,6.10
2019-02-26T23:08:22.426Z,6.00
2019-02-26T23:10:56.865Z,5.90
2019-02-26T23:13:24.910Z,5.90
2019-02-26T23:15:55.020Z,5.80
2019-02-26T23:18:25.205Z,5.80
2019-02-26T23:20:55.382Z,5.80
2019-02-26T23:23:25.591Z,5.80
2019-02-26T23:25:55.638Z,5.70
2019-02-26T23:28:25.764Z,5.70
2019-02-26T23:30:59.626Z,5.60
2019-02-26T23:33:27.797Z,5.60
2019-02-26T23:35:57.790Z,5.60
2019-02-26T23:38:28.870Z,5.60
2019-02-26T23:41:00.341Z,5.50
2019-02-26T23:43:32.144Z,5.50
2019-02-26T23:46:02.235Z,5.40
2019-02-26T23:48:32.276Z,5.30
2019-02-26T23:51:02.397Z,5.30
2019-02-26T23:53:34.160Z,5.30
2019-02-26T23:56:05.359Z,5.30
2019-02-26T23:58:35.399Z,5.30
